Antelope, Kansas
Current Conditions -  °F | °C
As of 7:35 PM on Wednesday 26 Nov 2014 (Local Time) from KEWK Reporting Station
Clear Clear  
Wind Chill: 23°   Ceiling: Unl
Heat Index: 32°   Visibility: 10mi
Dew Point: 18°   Wind: 12mph
Humidity: 55%   Direction: 340°NNW
Pressure: 30.38"   Gusts: NA
Location:  38.4689°N, 96.9315°W
Report Text: KEWK 270135Z AUTO 34010KT 10SM CLR 00/M08 A3038 RMK AO1
Loading
Personal Weather Stations






























Interactive Weather Map New forecast layout! Learn more

10-Day Weather Forecast

Advertisements
Track Severe Weather on mobile